createdAt,value
2017-10-09T00:00:00.069Z,6.77
2017-10-09T00:01:00.048Z,6.75
2017-10-09T00:02:00.021Z,6.77
2017-10-09T00:03:00.010Z,6.77
2017-10-09T00:03:59.977Z,6.70
2017-10-09T00:04:59.954Z,6.74
2017-10-09T00:05:59.928Z,6.59
2017-10-09T00:06:59.905Z,6.75
2017-10-09T00:07:59.891Z,6.74
2017-10-09T00:08:59.867Z,6.64
2017-10-09T00:09:59.850Z,6.67
2017-10-09T00:10:59.823Z,6.69
2017-10-09T00:11:59.802Z,6.69
2017-10-09T00:12:59.785Z,6.64
2017-10-09T00:13:59.761Z,6.67
2017-10-09T00:14:59.751Z,6.67
2017-10-09T00:15:59.713Z,6.62
2017-10-09T00:16:59.694Z,6.56
2017-10-09T00:17:59.677Z,6.56
2017-10-09T00:18:59.679Z,6.59
2017-10-09T00:19:59.627Z,6.51
2017-10-09T00:20:59.605Z,6.51
2017-10-09T00:21:59.591Z,6.57
2017-10-09T00:22:59.565Z,6.54
2017-10-09T00:23:59.543Z,6.62
2017-10-09T00:24:59.525Z,6.57
2017-10-09T00:25:59.507Z,6.60
2017-10-09T00:26:59.483Z,6.63
2017-10-09T00:27:59.468Z,6.63
2017-10-09T00:28:59.430Z,6.69
2017-10-09T00:29:59.406Z,6.63
2017-10-09T00:30:59.402Z,6.62
2017-10-09T00:31:59.368Z,6.56
2017-10-09T00:32:59.350Z,6.63
2017-10-09T00:33:59.320Z,6.67
2017-10-09T00:34:59.303Z,6.66
2017-10-09T00:35:59.281Z,6.66
2017-10-09T00:36:59.259Z,6.60
2017-10-09T00:37:59.238Z,6.66
2017-10-09T00:38:59.221Z,6.64
2017-10-09T00:39:59.199Z,6.63
2017-10-09T00:40:59.171Z,6.66
2017-10-09T00:41:59.154Z,6.60
2017-10-09T00:42:59.126Z,6.70
2017-10-09T00:43:59.103Z,6.64
2017-10-09T00:44:59.083Z,6.66
2017-10-09T00:45:59.068Z,6.74
2017-10-09T00:46:59.046Z,6.75
2017-10-09T00:47:59.016Z,6.69
2017-10-09T00:48:58.997Z,6.66
2017-10-09T00:49:58.972Z,6.77
2017-10-09T00:50:58.958Z,6.70
2017-10-09T00:51:58.945Z,6.79
2017-10-09T00:52:58.909Z,6.67
2017-10-09T00:53:58.901Z,6.70
2017-10-09T00:54:58.870Z,6.69
2017-10-09T00:55:58.845Z,6.72
2017-10-09T00:56:58.824Z,6.69
2017-10-09T00:57:58.808Z,6.74
2017-10-09T00:58:58.796Z,6.70
2017-10-09T00:59:58.758Z,6.75
2017-10-09T01:00:58.734Z,6.72
2017-10-09T01:01:58.714Z,6.78
2017-10-09T01:02:58.695Z,6.70
2017-10-09T01:03:58.698Z,6.69
2017-10-09T01:04:58.653Z,6.78
2017-10-09T01:05:58.629Z,6.75
2017-10-09T01:06:58.608Z,6.75
2017-10-09T01:07:58.587Z,6.74
2017-10-09T01:08:58.561Z,6.64
2017-10-09T01:09:58.545Z,6.74
2017-10-09T01:10:58.517Z,6.70
2017-10-09T01:11:58.499Z,6.60
2017-10-09T01:12:58.476Z,6.60
2017-10-09T01:13:58.454Z,6.72
2017-10-09T01:14:58.426Z,6.67
2017-10-09T01:16:00.119Z,6.69
2017-10-09T01:16:58.385Z,6.64
2017-10-09T01:17:58.365Z,6.63
2017-10-09T01:18:58.344Z,6.63
2017-10-09T01:19:58.322Z,6.67
2017-10-09T01:20:58.301Z,6.66
2017-10-09T01:21:58.280Z,6.62
2017-10-09T01:22:58.274Z,6.64
2017-10-09T01:23:58.233Z,6.69
2017-10-09T01:24:58.214Z,6.72
2017-10-09T01:25:58.189Z,6.63
2017-10-09T01:26:58.168Z,6.60
2017-10-09T01:27:58.156Z,6.60
2017-10-09T01:28:58.126Z,6.72
2017-10-09T01:29:58.106Z,6.69
2017-10-09T01:30:58.081Z,6.64
2017-10-09T01:31:58.063Z,6.74
2017-10-09T01:32:58.035Z,6.67
2017-10-09T01:33:58.028Z,6.66
2017-10-09T01:34:57.995Z,6.69
2017-10-09T01:35:57.977Z,6.66
2017-10-09T01:36:57.955Z,6.69
2017-10-09T01:37:57.929Z,6.70
2017-10-09T01:38:57.914Z,6.69
2017-10-09T01:39:57.884Z,6.72
2017-10-09T01:40:57.869Z,6.66
2017-10-09T01:41:57.845Z,6.67
2017-10-09T01:42:57.823Z,6.63
2017-10-09T01:43:57.794Z,6.70
2017-10-09T01:44:57.776Z,6.70
2017-10-09T01:45:57.756Z,6.67
2017-10-09T01:46:57.733Z,6.69
2017-10-09T01:47:57.716Z,6.63
2017-10-09T01:48:57.691Z,6.64
2017-10-09T01:49:57.664Z,6.64
2017-10-09T01:50:57.643Z,6.66
2017-10-09T01:51:57.641Z,6.62
2017-10-09T01:52:57.603Z,6.64
2017-10-09T01:53:57.582Z,6.70
2017-10-09T01:54:57.559Z,6.67
2017-10-09T01:55:57.540Z,6.72
2017-10-09T01:56:57.518Z,6.67
2017-10-09T01:57:57.492Z,6.57
2017-10-09T01:58:57.471Z,6.56
2017-10-09T01:59:57.451Z,6.62
2017-10-09T02:00:57.428Z,6.63
2017-10-09T02:01:57.414Z,6.78
2017-10-09T02:02:57.384Z,6.74
2017-10-09T02:03:57.364Z,6.69
2017-10-09T02:04:57.349Z,6.75
2017-10-09T02:05:57.322Z,6.79
2017-10-09T02:06:57.307Z,6.77
2017-10-09T02:07:57.276Z,6.70
2017-10-09T02:08:57.248Z,6.75
2017-10-09T02:09:57.232Z,6.69
2017-10-09T02:10:57.209Z,6.77
2017-10-09T02:11:57.181Z,6.74
2017-10-09T02:12:57.173Z,6.74
2017-10-09T02:13:57.146Z,6.69
2017-10-09T02:14:57.124Z,6.67
2017-10-09T02:15:57.098Z,6.69
2017-10-09T02:16:57.094Z,6.74
2017-10-09T02:17:57.057Z,6.72
2017-10-09T02:18:57.034Z,6.69
2017-10-09T02:19:57.019Z,6.72
2017-10-09T02:20:56.992Z,6.79
2017-10-09T02:21:56.971Z,6.70
2017-10-09T02:22:56.950Z,6.74
2017-10-09T02:23:56.921Z,6.72
2017-10-09T02:24:56.906Z,6.78
2017-10-09T02:25:56.878Z,6.74
2017-10-09T02:26:56.870Z,6.75
2017-10-09T02:27:56.839Z,6.77
2017-10-09T02:28:56.817Z,6.74
2017-10-09T02:29:56.792Z,6.82
2017-10-09T02:30:56.782Z,6.78
2017-10-09T02:31:56.753Z,6.77
2017-10-09T02:32:56.727Z,6.82
2017-10-09T02:33:56.706Z,6.84
2017-10-09T02:34:56.683Z,6.75
2017-10-09T02:35:56.663Z,6.77
2017-10-09T02:36:56.649Z,6.79
2017-10-09T02:37:56.628Z,6.84
2017-10-09T02:38:56.600Z,6.78
2017-10-09T02:39:56.578Z,6.77
2017-10-09T02:40:56.557Z,6.70
2017-10-09T02:41:56.539Z,6.72
2017-10-09T02:42:56.520Z,6.69
2017-10-09T02:43:56.497Z,6.72
2017-10-09T02:44:56.468Z,6.79
2017-10-09T02:45:56.446Z,6.77
2017-10-09T02:46:56.434Z,6.70
2017-10-09T02:47:56.399Z,6.72
2017-10-09T02:48:56.392Z,6.62
2017-10-09T02:49:56.364Z,6.70
2017-10-09T02:50:56.340Z,6.72
2017-10-09T02:51:56.328Z,6.74
2017-10-09T02:52:56.320Z,6.81
2017-10-09T02:53:56.281Z,6.79
2017-10-09T02:54:56.252Z,6.77
2017-10-09T02:55:56.233Z,6.82
2017-10-09T02:56:56.208Z,6.87
2017-10-09T02:57:56.187Z,6.85
2017-10-09T02:58:56.184Z,6.92
2017-10-09T02:59:56.155Z,6.89
2017-10-09T03:00:56.124Z,6.89
2017-10-09T03:01:56.107Z,6.93
2017-10-09T03:02:56.081Z,6.96
2017-10-09T03:03:56.055Z,7.00
2017-10-09T03:04:56.042Z,7.05
2017-10-09T03:05:56.013Z,6.99
2017-10-09T03:06:56.000Z,7.07
2017-10-09T03:07:55.969Z,7.10
2017-10-09T03:08:55.944Z,7.02
2017-10-09T03:09:55.937Z,7.03
2017-10-09T03:10:55.904Z,7.05
2017-10-09T03:11:55.891Z,7.05
2017-10-09T03:12:55.861Z,7.05
2017-10-09T03:13:55.842Z,7.06
2017-10-09T03:14:55.828Z,7.10
2017-10-09T03:15:55.799Z,7.13
2017-10-09T03:16:55.781Z,7.07
2017-10-09T03:17:55.756Z,7.06
2017-10-09T03:18:55.730Z,7.17
2017-10-09T03:19:55.712Z,7.14
2017-10-09T03:20:55.704Z,7.15
2017-10-09T03:21:55.666Z,7.11
2017-10-09T03:22:55.650Z,7.11
2017-10-09T03:23:55.638Z,7.10
2017-10-09T03:24:55.607Z,7.05
2017-10-09T03:25:55.577Z,7.07
2017-10-09T03:26:55.557Z,7.05
2017-10-09T03:27:55.540Z,7.05
2017-10-09T03:28:55.517Z,7.13
2017-10-09T03:29:55.499Z,7.05
2017-10-09T03:30:55.476Z,7.11
2017-10-09T03:31:55.448Z,7.13
2017-10-09T03:32:55.424Z,7.10
2017-10-09T03:33:55.408Z,7.11
2017-10-09T03:34:55.402Z,7.07
2017-10-09T03:35:55.371Z,7.13
2017-10-09T03:36:55.344Z,7.20
2017-10-09T03:37:55.316Z,7.13
2017-10-09T03:38:55.318Z,7.20
2017-10-09T03:39:55.278Z,7.13
2017-10-09T03:40:55.257Z,7.14
2017-10-09T03:41:55.262Z,7.14
2017-10-09T03:42:55.211Z,7.14
2017-10-09T03:43:55.193Z,7.13
2017-10-09T03:44:55.170Z,7.24
2017-10-09T03:45:55.146Z,7.11
2017-10-09T03:46:55.128Z,7.21
2017-10-09T03:47:55.116Z,7.25
2017-10-09T03:48:55.087Z,7.14
2017-10-09T03:49:55.076Z,7.18
2017-10-09T03:50:55.046Z,7.14
2017-10-09T03:51:55.016Z,7.21
2017-10-09T03:52:55.010Z,7.21
2017-10-09T03:53:54.983Z,7.25
2017-10-09T03:54:54.954Z,7.21
2017-10-09T03:55:54.933Z,7.21
2017-10-09T03:56:54.907Z,7.21
2017-10-09T03:57:54.889Z,7.28
2017-10-09T03:58:54.872Z,7.20
2017-10-09T03:59:54.845Z,7.28
2017-10-09T04:00:54.835Z,7.28
2017-10-09T04:01:54.805Z,7.25
2017-10-09T04:02:54.780Z,7.14
2017-10-09T04:03:54.763Z,7.14
2017-10-09T04:04:54.734Z,7.15
2017-10-09T04:05:54.721Z,7.13
2017-10-09T04:06:54.699Z,7.11
2017-10-09T04:07:54.671Z,7.17
2017-10-09T04:08:54.654Z,7.18
2017-10-09T04:09:54.640Z,7.11
2017-10-09T04:10:54.617Z,7.13
2017-10-09T04:11:54.590Z,7.17
2017-10-09T04:12:54.565Z,7.13
2017-10-09T04:13:54.547Z,7.17
2017-10-09T04:14:54.527Z,7.23
2017-10-09T04:15:54.501Z,7.24
2017-10-09T04:16:54.477Z,7.20
2017-10-09T04:17:54.454Z,7.25
2017-10-09T04:18:54.429Z,7.29
2017-10-09T04:19:54.419Z,7.29
2017-10-09T04:20:54.402Z,7.25
2017-10-09T04:21:54.381Z,7.29
2017-10-09T04:22:54.352Z,7.24
2017-10-09T04:23:54.323Z,7.24
2017-10-09T04:24:54.315Z,7.28
2017-10-09T04:25:54.284Z,7.29
2017-10-09T04:26:54.265Z,7.25
2017-10-09T04:27:54.245Z,7.21
2017-10-09T04:28:54.239Z,7.25
2017-10-09T04:29:54.190Z,7.35
2017-10-09T04:30:54.181Z,7.31
2017-10-09T04:31:54.677Z,7.28
2017-10-09T04:32:54.131Z,7.32
2017-10-09T04:33:54.114Z,7.25
2017-10-09T04:34:54.094Z,7.35
2017-10-09T04:35:54.068Z,7.25
2017-10-09T04:36:54.045Z,7.42
2017-10-09T04:37:54.030Z,7.42
2017-10-09T04:38:54.007Z,7.31
2017-10-09T04:39:54.010Z,7.36
2017-10-09T04:40:53.969Z,7.33
2017-10-09T04:41:53.949Z,7.39
2017-10-09T04:42:53.946Z,7.38
2017-10-09T04:43:53.900Z,7.35
2017-10-09T04:44:53.870Z,7.43
2017-10-09T04:45:53.853Z,7.43
2017-10-09T04:46:53.838Z,7.36
2017-10-09T04:47:53.807Z,7.45
2017-10-09T04:48:53.803Z,7.47
2017-10-09T04:49:53.770Z,7.47
2017-10-09T04:50:53.767Z,7.40
2017-10-09T04:51:53.724Z,7.38
2017-10-09T04:52:53.694Z,7.54
2017-10-09T04:53:53.716Z,7.50
2017-10-09T04:54:53.653Z,7.51
2017-10-09T04:55:53.651Z,7.54
2017-10-09T04:56:53.617Z,7.48
2017-10-09T04:57:53.594Z,7.51
2017-10-09T04:58:53.579Z,7.54
2017-10-09T04:59:53.547Z,7.51
2017-10-09T05:00:53.542Z,7.50
2017-10-09T05:01:53.524Z,7.54
2017-10-09T05:02:53.483Z,7.51
2017-10-09T05:03:53.468Z,7.57
2017-10-09T05:04:53.450Z,7.56
2017-10-09T05:05:53.419Z,7.56
2017-10-09T05:06:53.401Z,7.56
2017-10-09T05:07:53.391Z,7.54
2017-10-09T05:08:53.381Z,7.61
2017-10-09T05:09:53.512Z,7.53
2017-10-09T05:10:53.462Z,7.56
2017-10-09T05:12:04.185Z,7.66
2017-10-09T05:12:53.348Z,7.67
2017-10-09T05:13:53.315Z,7.67
2017-10-09T05:14:53.227Z,7.67
2017-10-09T05:15:53.218Z,7.67
2017-10-09T05:16:53.195Z,7.66
2017-10-09T05:17:53.165Z,7.72
2017-10-09T05:18:53.134Z,7.75
2017-10-09T05:19:53.119Z,7.73
2017-10-09T05:20:53.099Z,7.76
2017-10-09T05:21:53.083Z,7.69
2017-10-09T05:22:53.081Z,7.69
2017-10-09T05:23:53.038Z,7.77
2017-10-09T05:24:53.032Z,7.77
2017-10-09T05:25:53.005Z,7.76
2017-10-09T05:26:52.963Z,7.69
2017-10-09T05:27:52.964Z,7.63
2017-10-09T05:28:52.962Z,7.70
2017-10-09T05:29:52.897Z,7.61
2017-10-09T05:30:52.885Z,7.63
2017-10-09T05:31:52.871Z,7.56
2017-10-09T05:32:52.847Z,7.58
2017-10-09T05:33:52.835Z,7.53
2017-10-09T05:34:52.852Z,7.45
2017-10-09T05:35:52.771Z,7.50
2017-10-09T05:36:52.781Z,7.35
2017-10-09T05:37:52.725Z,7.43
2017-10-09T05:38:52.718Z,7.42
2017-10-09T05:39:52.723Z,7.40
2017-10-09T05:40:52.675Z,7.39
2017-10-09T05:41:52.672Z,7.45
2017-10-09T05:42:52.620Z,7.40
2017-10-09T05:43:52.608Z,7.43
2017-10-09T05:44:52.582Z,7.54
2017-10-09T05:45:52.562Z,7.51
2017-10-09T05:46:52.538Z,7.50
2017-10-09T05:47:52.524Z,7.51
2017-10-09T05:48:52.505Z,7.48
2017-10-09T05:49:52.514Z,7.53
2017-10-09T05:50:52.452Z,7.56
2017-10-09T05:51:52.469Z,7.57
2017-10-09T05:52:52.433Z,7.53
2017-10-09T05:53:52.423Z,7.57
2017-10-09T05:54:52.373Z,7.54
2017-10-09T05:55:52.371Z,7.70
2017-10-09T05:56:52.363Z,7.67
2017-10-09T05:57:52.298Z,7.63
2017-10-09T05:58:52.315Z,7.69
2017-10-09T05:59:52.278Z,7.76
2017-10-09T06:00:52.271Z,7.76
2017-10-09T06:01:52.226Z,7.77
2017-10-09T06:02:52.204Z,7.69
2017-10-09T06:03:52.197Z,7.83
2017-10-09T06:04:52.184Z,7.70
2017-10-09T06:05:52.153Z,7.75
2017-10-09T06:06:52.106Z,7.79
2017-10-09T06:07:52.105Z,7.83
2017-10-09T06:08:52.068Z,7.79
2017-10-09T06:09:52.083Z,7.77
2017-10-09T06:10:52.027Z,7.73
2017-10-09T06:11:51.997Z,7.88
2017-10-09T06:12:51.984Z,7.77
2017-10-09T06:13:51.958Z,7.77
2017-10-09T06:14:51.955Z,7.90
2017-10-09T06:15:51.935Z,7.93
2017-10-09T06:16:51.913Z,7.83
2017-10-09T06:17:51.884Z,7.90
2017-10-09T06:18:51.862Z,7.91
2017-10-09T06:19:51.842Z,7.93
2017-10-09T06:20:51.812Z,7.91
2017-10-09T06:21:51.796Z,7.98
2017-10-09T06:22:51.773Z,7.97
2017-10-09T06:23:51.741Z,8.08
2017-10-09T06:24:51.720Z,8.03
2017-10-09T06:25:51.727Z,8.03
2017-10-09T06:26:51.699Z,8.05
2017-10-09T06:27:51.672Z,8.06
2017-10-09T06:28:51.669Z,8.08
2017-10-09T06:29:51.659Z,8.08
2017-10-09T06:30:51.610Z,8.03
2017-10-09T06:31:51.577Z,8.03
2017-10-09T06:32:51.556Z,8.15
2017-10-09T06:33:51.528Z,8.13
2017-10-09T06:34:51.541Z,8.19
2017-10-09T06:35:51.512Z,8.27
2017-10-09T06:36:51.466Z,8.30
2017-10-09T06:37:51.485Z,8.30
2017-10-09T06:38:51.440Z,8.36
2017-10-09T06:39:51.412Z,8.51
2017-10-09T06:40:51.379Z,8.45
2017-10-09T06:41:51.396Z,8.63
2017-10-09T06:42:51.363Z,8.63
2017-10-09T06:43:51.323Z,8.71
2017-10-09T06:44:51.308Z,8.76
2017-10-09T06:45:51.286Z,8.85
2017-10-09T06:46:51.263Z,8.84
2017-10-09T06:47:51.236Z,8.97
2017-10-09T06:48:51.211Z,8.94
2017-10-09T06:49:51.207Z,9.06
2017-10-09T06:50:51.196Z,9.13
2017-10-09T06:51:51.172Z,9.21
2017-10-09T06:52:51.126Z,9.28
2017-10-09T06:53:51.105Z,9.40
2017-10-09T06:54:51.094Z,9.39
2017-10-09T06:55:51.072Z,9.51
2017-10-09T06:56:51.038Z,9.56
2017-10-09T06:57:51.024Z,9.55
2017-10-09T06:58:51.008Z,9.50
2017-10-09T06:59:50.986Z,9.47
2017-10-09T07:00:50.977Z,9.46
2017-10-09T07:01:50.946Z,9.56
2017-10-09T07:02:50.927Z,9.66
2017-10-09T07:03:50.908Z,9.68
2017-10-09T07:04:50.874Z,9.77
2017-10-09T07:05:50.866Z,9.95
2017-10-09T07:06:50.839Z,9.98
2017-10-09T07:07:50.826Z,10.02
2017-10-09T07:08:50.804Z,10.02
2017-10-09T07:09:50.793Z,10.02
2017-10-09T07:10:50.782Z,10.04
2017-10-09T07:11:50.748Z,10.12
2017-10-09T07:12:50.712Z,10.01
2017-10-09T07:13:50.698Z,10.10
2017-10-09T07:14:50.692Z,10.12
2017-10-09T07:15:50.660Z,10.20
2017-10-09T07:16:50.642Z,10.22
2017-10-09T07:17:50.627Z,10.30
2017-10-09T07:18:50.609Z,10.42
2017-10-09T07:19:50.580Z,10.33
2017-10-09T07:20:50.554Z,10.54
2017-10-09T07:21:50.539Z,10.40
2017-10-09T07:22:50.506Z,10.61
2017-10-09T07:23:50.498Z,10.59
2017-10-09T07:24:50.483Z,10.72
2017-10-09T07:25:50.466Z,10.87
2017-10-09T07:26:50.429Z,10.94
2017-10-09T07:27:50.423Z,11.04
2017-10-09T07:28:50.388Z,11.10
2017-10-09T07:29:50.376Z,11.14
2017-10-09T07:30:50.358Z,11.22
2017-10-09T07:31:50.341Z,11.22
2017-10-09T07:32:50.310Z,11.17
2017-10-09T07:33:50.300Z,11.12
2017-10-09T07:34:50.286Z,11.18
2017-10-09T07:35:50.255Z,11.25
2017-10-09T07:36:50.266Z,11.30
2017-10-09T07:37:50.213Z,11.32
2017-10-09T07:38:50.221Z,11.37
2017-10-09T07:39:50.166Z,11.52
2017-10-09T07:40:50.156Z,11.60
2017-10-09T07:41:50.130Z,11.62
2017-10-09T07:42:50.111Z,11.78
2017-10-09T07:43:50.092Z,11.81
2017-10-09T07:44:50.092Z,11.87
2017-10-09T07:45:50.053Z,12.03
2017-10-09T07:46:50.042Z,11.99
2017-10-09T07:47:50.010Z,12.21
2017-10-09T07:48:50.005Z,12.45
2017-10-09T07:49:49.991Z,12.73
2017-10-09T07:50:49.952Z,12.98
2017-10-09T07:51:49.934Z,13.18
2017-10-09T07:52:49.930Z,13.52
2017-10-09T07:53:49.890Z,13.83
2017-10-09T07:54:49.880Z,14.20
2017-10-09T07:55:49.866Z,14.66
2017-10-09T07:56:49.842Z,14.78
2017-10-09T07:57:49.825Z,14.48
2017-10-09T07:58:49.799Z,14.29
2017-10-09T07:59:49.778Z,14.22
2017-10-09T08:00:49.767Z,13.99
2017-10-09T08:01:49.760Z,13.97
2017-10-09T08:02:49.728Z,13.97
2017-10-09T08:03:49.718Z,14.18
2017-10-09T08:04:49.719Z,14.53
2017-10-09T08:05:49.681Z,14.73
2017-10-09T08:06:49.660Z,14.84
2017-10-09T08:07:49.659Z,14.84
2017-10-09T08:08:49.645Z,14.92
2017-10-09T08:09:49.594Z,15.15
2017-10-09T08:10:49.585Z,15.14
2017-10-09T08:11:49.570Z,15.00
2017-10-09T08:12:49.545Z,14.82
2017-10-09T08:13:49.531Z,14.70
2017-10-09T08:14:49.509Z,14.66
2017-10-09T08:15:49.510Z,14.59
2017-10-09T08:16:49.481Z,14.58
2017-10-09T08:17:49.458Z,14.60
2017-10-09T08:18:49.443Z,14.66
2017-10-09T08:19:49.418Z,14.79
2017-10-09T08:20:49.401Z,14.73
2017-10-09T08:21:49.382Z,14.92
2017-10-09T08:22:49.375Z,15.06
2017-10-09T08:23:49.349Z,15.31
2017-10-09T08:24:49.339Z,15.68
2017-10-09T08:25:49.321Z,16.20
2017-10-09T08:26:49.303Z,16.64
2017-10-09T08:27:49.297Z,17.27
2017-10-09T08:28:49.267Z,17.92
2017-10-09T08:29:49.252Z,18.40
2017-10-09T08:30:49.236Z,19.07
2017-10-09T08:31:49.224Z,19.34
2017-10-09T08:32:49.204Z,19.91
2017-10-09T08:33:49.192Z,20.67
2017-10-09T08:34:49.177Z,21.37
2017-10-09T08:35:49.151Z,21.95
2017-10-09T08:36:49.142Z,22.00
2017-10-09T08:37:49.143Z,21.99
2017-10-09T08:38:49.109Z,22.36
2017-10-09T08:39:49.096Z,22.72
2017-10-09T08:40:49.089Z,23.09
2017-10-09T08:41:49.090Z,23.24
2017-10-09T08:42:49.056Z,23.41
2017-10-09T08:43:49.053Z,23.58
2017-10-09T08:44:49.030Z,23.69
2017-10-09T08:45:49.024Z,23.80
2017-10-09T08:46:49.019Z,23.88
2017-10-09T08:47:48.990Z,24.05
2017-10-09T08:48:48.990Z,24.28
2017-10-09T08:49:48.982Z,24.38
2017-10-09T08:50:48.956Z,24.61
2017-10-09T08:51:48.954Z,24.99
2017-10-09T08:52:48.937Z,25.08
2017-10-09T08:53:48.917Z,24.99
2017-10-09T08:54:48.907Z,25.10
2017-10-09T08:55:48.921Z,25.07
2017-10-09T08:56:48.898Z,24.78
2017-10-09T08:57:48.875Z,24.65
2017-10-09T08:58:48.853Z,24.40
2017-10-09T08:59:48.856Z,24.21
2017-10-09T09:00:48.850Z,23.81
2017-10-09T09:01:48.820Z,23.78
2017-10-09T09:02:48.815Z,23.86
2017-10-09T09:03:48.801Z,24.03
2017-10-09T09:04:48.800Z,24.05
2017-10-09T09:05:48.799Z,24.03
2017-10-09T09:06:48.766Z,23.92
2017-10-09T09:07:48.772Z,24.35
2017-10-09T09:08:48.761Z,24.99
2017-10-09T09:09:48.740Z,25.69
2017-10-09T09:10:48.726Z,25.73
2017-10-09T09:11:48.707Z,25.13
2017-10-09T09:12:48.706Z,24.23
2017-10-09T09:13:48.691Z,23.83
2017-10-09T09:14:48.683Z,24.03
2017-10-09T09:15:48.663Z,24.50
2017-10-09T09:16:48.678Z,24.38
2017-10-09T09:17:48.666Z,23.96
2017-10-09T09:18:48.648Z,23.27
2017-10-09T09:19:48.657Z,22.48
2017-10-09T09:20:48.625Z,21.79
2017-10-09T09:21:48.603Z,21.24
2017-10-09T09:22:48.596Z,20.51
2017-10-09T09:23:48.582Z,19.96
2017-10-09T09:24:48.577Z,19.51
2017-10-09T09:25:48.582Z,19.07
2017-10-09T09:26:48.541Z,18.73
2017-10-09T09:27:48.535Z,18.35
2017-10-09T09:28:48.527Z,18.08
2017-10-09T09:29:48.511Z,17.86
2017-10-09T09:30:48.496Z,17.49
2017-10-09T09:31:48.492Z,17.26
2017-10-09T09:32:48.471Z,17.06
2017-10-09T09:33:48.477Z,16.79
2017-10-09T09:34:48.438Z,16.60
2017-10-09T09:35:48.445Z,16.36
2017-10-09T09:36:48.451Z,16.28
2017-10-09T09:37:48.394Z,16.17
2017-10-09T09:38:48.391Z,16.10
2017-10-09T09:39:48.376Z,16.01
2017-10-09T09:40:48.366Z,16.05
2017-10-09T09:41:48.351Z,15.98
2017-10-09T09:42:48.571Z,16.00
2017-10-09T09:43:48.310Z,16.17
2017-10-09T09:44:48.305Z,17.02
2017-10-09T09:45:48.280Z,17.95
2017-10-09T09:46:48.278Z,18.96
2017-10-09T09:47:48.292Z,19.89
2017-10-09T09:48:48.244Z,20.34
2017-10-09T09:49:48.228Z,20.32
2017-10-09T09:50:48.218Z,20.21
2017-10-09T09:51:48.194Z,20.16
2017-10-09T09:52:48.184Z,20.04
2017-10-09T09:53:48.167Z,19.81
2017-10-09T09:54:48.164Z,19.40
2017-10-09T09:55:48.138Z,19.08
2017-10-09T09:56:48.144Z,18.62
2017-10-09T09:57:48.119Z,18.31
2017-10-09T09:58:48.098Z,17.97
2017-10-09T09:59:48.091Z,17.67
2017-10-09T10:00:48.070Z,17.34
2017-10-09T10:01:48.054Z,17.02
2017-10-09T10:02:48.036Z,16.83
2017-10-09T10:03:48.026Z,16.61
2017-10-09T10:04:48.023Z,16.60
2017-10-09T10:05:47.991Z,16.87
2017-10-09T10:06:47.990Z,18.04
2017-10-09T10:07:48.032Z,19.91
2017-10-09T10:08:47.956Z,21.85
2017-10-09T10:09:47.935Z,23.59
2017-10-09T10:10:47.918Z,25.16
2017-10-09T10:11:47.902Z,26.34
2017-10-09T10:12:47.937Z,27.59
2017-10-09T10:13:47.888Z,28.52
2017-10-09T10:14:47.883Z,29.13
2017-10-09T10:15:47.866Z,29.71
2017-10-09T10:16:47.848Z,30.23
2017-10-09T10:17:47.837Z,30.47
2017-10-09T10:18:47.831Z,29.94
2017-10-09T10:19:47.810Z,28.72
2017-10-09T10:20:47.818Z,27.64
2017-10-09T10:21:47.811Z,27.08
2017-10-09T10:22:47.787Z,27.15
2017-10-09T10:23:47.791Z,27.12
2017-10-09T10:24:47.778Z,27.15
2017-10-09T10:25:47.762Z,27.14
2017-10-09T10:26:49.154Z,26.43
2017-10-09T10:27:47.746Z,25.60
2017-10-09T10:28:47.745Z,24.50
2017-10-09T10:29:47.739Z,23.40
2017-10-09T10:30:47.736Z,22.45
2017-10-09T10:31:47.705Z,21.79
2017-10-09T10:32:47.700Z,21.27
2017-10-09T10:33:47.701Z,20.93
2017-10-09T10:34:47.711Z,20.97
2017-10-09T10:35:47.665Z,21.14
2017-10-09T10:36:47.669Z,20.77
2017-10-09T10:37:47.652Z,20.32
2017-10-09T10:38:47.631Z,19.79
2017-10-09T10:39:47.635Z,19.29
2017-10-09T10:40:47.649Z,18.81
2017-10-09T10:41:47.607Z,18.58
2017-10-09T10:42:47.605Z,18.26
2017-10-09T10:43:47.580Z,18.16
2017-10-09T10:44:47.581Z,17.98
2017-10-09T10:45:47.557Z,17.87
2017-10-09T10:46:47.545Z,17.90
2017-10-09T10:47:47.530Z,17.74
2017-10-09T10:48:47.519Z,17.70
2017-10-09T10:49:47.513Z,17.85
2017-10-09T10:50:47.494Z,17.97
2017-10-09T10:51:47.516Z,18.28
2017-10-09T10:52:47.461Z,18.49
2017-10-09T10:53:47.450Z,19.08
2017-10-09T10:54:47.434Z,19.40
2017-10-09T10:55:47.428Z,19.84
2017-10-09T10:56:47.412Z,20.25
2017-10-09T10:57:47.404Z,20.63
2017-10-09T10:58:47.391Z,21.05
2017-10-09T10:59:47.368Z,21.29
2017-10-09T11:00:47.359Z,21.58
2017-10-09T11:01:47.341Z,22.00
2017-10-09T11:02:47.333Z,22.54
2017-10-09T11:03:47.325Z,22.91
2017-10-09T11:04:47.306Z,22.91
2017-10-09T11:05:47.288Z,23.12
2017-10-09T11:06:47.278Z,23.40
2017-10-09T11:07:47.261Z,24.13
2017-10-09T11:08:47.252Z,25.26
2017-10-09T11:09:47.257Z,26.48
2017-10-09T11:10:47.221Z,27.39
2017-10-09T11:11:47.213Z,28.12
2017-10-09T11:12:47.206Z,28.62
2017-10-09T11:13:47.192Z,29.07
2017-10-09T11:14:47.175Z,29.59
2017-10-09T11:15:47.176Z,30.13
2017-10-09T11:16:47.182Z,30.43
2017-10-09T11:17:47.146Z,30.31
2017-10-09T11:18:47.135Z,29.81
2017-10-09T11:19:47.127Z,29.31
2017-10-09T11:20:47.112Z,29.36
2017-10-09T11:21:47.135Z,29.68
2017-10-09T11:22:47.097Z,29.66
2017-10-09T11:23:47.082Z,29.32
2017-10-09T11:24:47.070Z,28.69
2017-10-09T11:25:47.066Z,28.15
2017-10-09T11:26:47.060Z,27.60
2017-10-09T11:27:47.058Z,27.12
2017-10-09T11:28:47.038Z,26.78
2017-10-09T11:29:47.032Z,26.25
2017-10-09T11:30:47.028Z,25.83
2017-10-09T11:31:47.027Z,25.28
2017-10-09T11:32:47.002Z,24.61
2017-10-09T11:33:47.008Z,23.84
2017-10-09T11:34:46.982Z,23.36
2017-10-09T11:35:46.977Z,23.05
2017-10-09T11:36:46.957Z,22.73
2017-10-09T11:37:46.953Z,22.57
2017-10-09T11:38:46.938Z,22.44
2017-10-09T11:39:46.931Z,22.14
2017-10-09T11:40:46.960Z,21.76
2017-10-09T11:41:46.906Z,21.55
2017-10-09T11:42:46.896Z,21.52
2017-10-09T11:43:46.906Z,22.30
2017-10-09T11:44:46.895Z,23.54
2017-10-09T11:45:46.863Z,24.58
2017-10-09T11:46:46.855Z,25.68
2017-10-09T11:47:46.840Z,26.41
2017-10-09T11:48:46.838Z,27.11
2017-10-09T11:49:46.822Z,27.18
2017-10-09T11:50:46.822Z,26.77
2017-10-09T11:51:46.793Z,26.38
2017-10-09T11:52:46.792Z,25.88
2017-10-09T11:53:46.779Z,25.59
2017-10-09T11:54:46.765Z,24.78
2017-10-09T11:55:46.758Z,24.21
2017-10-09T11:56:46.744Z,23.61
2017-10-09T11:57:46.728Z,23.61
2017-10-09T11:58:46.738Z,23.65
2017-10-09T11:59:46.733Z,23.78
2017-10-09T12:00:46.707Z,23.92
2017-10-09T12:01:46.680Z,23.65
2017-10-09T12:02:46.674Z,23.13
2017-10-09T12:03:46.661Z,22.53
2017-10-09T12:04:46.655Z,22.28
2017-10-09T12:05:46.648Z,21.79
2017-10-09T12:06:46.628Z,21.67
2017-10-09T12:07:46.611Z,21.72
2017-10-09T12:08:46.607Z,21.77
2017-10-09T12:09:46.586Z,21.75
2017-10-09T12:10:46.602Z,21.42
2017-10-09T12:11:46.560Z,21.09
2017-10-09T12:12:46.563Z,20.80
2017-10-09T12:13:46.546Z,20.44
2017-10-09T12:14:46.533Z,20.09
2017-10-09T12:15:46.517Z,19.81
2017-10-09T12:16:46.526Z,19.41
2017-10-09T12:17:46.492Z,18.96
2017-10-09T12:18:46.477Z,18.53
2017-10-09T12:19:46.467Z,18.26
2017-10-09T12:20:46.453Z,18.07
2017-10-09T12:21:46.434Z,17.94
2017-10-09T12:22:46.438Z,17.67
2017-10-09T12:23:46.408Z,17.52
2017-10-09T12:24:46.396Z,17.46
2017-10-09T12:25:46.375Z,17.36
2017-10-09T12:26:46.382Z,17.23
2017-10-09T12:27:46.359Z,17.08
2017-10-09T12:28:46.348Z,17.14
2017-10-09T12:29:46.322Z,17.11
2017-10-09T12:30:46.321Z,17.14
2017-10-09T12:31:46.301Z,17.09
2017-10-09T12:32:46.277Z,17.04
2017-10-09T12:33:46.279Z,17.05
2017-10-09T12:34:46.261Z,16.97
2017-10-09T12:35:46.237Z,16.83
2017-10-09T12:36:46.215Z,16.78
2017-10-09T12:37:46.209Z,16.66
2017-10-09T12:38:46.192Z,16.60
2017-10-09T12:39:46.183Z,16.56
2017-10-09T12:40:46.167Z,16.54
2017-10-09T12:41:46.187Z,16.64
2017-10-09T12:42:46.131Z,16.64
2017-10-09T12:43:46.110Z,16.65
2017-10-09T12:44:46.103Z,16.41
2017-10-09T12:45:46.086Z,16.24
2017-10-09T12:46:46.068Z,16.21
2017-10-09T12:47:46.049Z,16.26
2017-10-09T12:48:46.035Z,16.21
2017-10-09T12:49:46.026Z,16.21
2017-10-09T12:50:46.005Z,16.16
2017-10-09T12:51:46.046Z,16.23
2017-10-09T12:52:45.978Z,16.15
2017-10-09T12:53:45.960Z,16.09
2017-10-09T12:54:45.938Z,16.05
2017-10-09T12:55:45.922Z,16.00
2017-10-09T12:56:45.952Z,15.92
2017-10-09T12:57:45.894Z,15.98
2017-10-09T12:58:45.893Z,15.83
2017-10-09T12:59:45.858Z,15.84
2017-10-09T13:00:45.845Z,15.82
2017-10-09T13:01:45.834Z,15.73
2017-10-09T13:02:45.829Z,15.76
2017-10-09T13:03:45.792Z,15.73
2017-10-09T13:04:45.781Z,15.64
2017-10-09T13:05:45.774Z,15.61